Time,TemperatureF,DewpointF,PressureIn,WindDirection,WindDirectionDegrees,WindSpeedMPH,WindSpeedGustMPH,Humidity,HourlyPrecipIn,Conditions,Clouds,dailyrainin,SolarRadiationWatts/m^2,SoftwareType,DateUTC
2013-12-28 00:01:00,65.4,63.9,29.90,ENE,64,7.0,14.0,95,0.02,RA,SCT,0.00,0.0,WeatherDisplay:10.37,2013-12-28 10:01:00,
2013-12-28 00:10:00,65.4,63.9,29.90,NE,56,6.0,13.0,95,0.01,-RA,SCT,0.01,0.0,WeatherDisplay:10.37,2013-12-28 10:10:00,
2013-12-28 00:20:00,65.4,63.9,29.89,NE,55,8.0,14.0,95,0.00,-RA,SCT,0.01,0.0,WeatherDisplay:10.37,2013-12-28 10:20:00,
2013-12-28 00:31:00,65.5,64.0,29.89,NE,51,7.0,12.0,95,0.00,-RA,SCT,0.01,0.0,WeatherDisplay:10.37,2013-12-28 10:31:00,
2013-12-28 00:40:00,65.6,64.4,29.89,NE,54,5.0,14.0,96,0.02,-RA,SCT,0.03,0.0,WeatherDisplay:10.37,2013-12-28 10:40:00,
2013-12-28 00:50:00,65.7,64.5,29.89,ENE,67,1.0,6.0,96,0.08,-RA,SCT,0.11,0.0,WeatherDisplay:10.37,2013-12-28 10:50:00,
2013-12-28 01:01:00,65.8,64.6,29.89,NNE,31,2.0,8.0,96,0.11,-RA,SCT,0.23,0.0,WeatherDisplay:10.37,2013-12-28 11:01:00,
2013-12-28 01:10:00,65.7,64.5,29.88,NE,44,5.0,15.0,96,0.10,-RA,SCT,0.32,0.0,WeatherDisplay:10.37,2013-12-28 11:10:00,
2013-12-28 01:20:00,65.8,64.6,29.88,NE,50,3.0,10.0,96,0.00,-RA,SCT,0.32,0.0,WeatherDisplay:10.37,2013-12-28 11:20:00,
2013-12-28 01:30:00,65.8,64.6,29.88,ENE,57,5.0,10.0,96,0.03,-RA,SCT,0.35,0.0,WeatherDisplay:10.37,2013-12-28 11:30:00,
2013-12-28 01:40:00,65.8,64.6,29.88,NE,46,5.0,10.0,96,0.03,-RA,SCT,0.38,0.0,WeatherDisplay:10.37,2013-12-28 11:40:00,
2013-12-28 01:50:00,65.7,64.5,29.88,ENE,60,5.0,12.0,96,0.04,-RA,SCT,0.42,0.0,WeatherDisplay:10.37,2013-12-28 11:50:00,
2013-12-28 02:01:00,65.8,64.6,29.88,ENE,61,6.0,9.0,96,0.05,-RA,SCT,0.47,0.0,WeatherDisplay:10.37,2013-12-28 12:01:00,
2013-12-28 02:10:00,65.6,64.1,29.87,ENE,72,2.0,10.0,95,0.15, +RA,SCT,0.62,0.0,WeatherDisplay:10.37,2013-12-28 12:10:00,
2013-12-28 02:20:00,65.4,64.0,29.87,ENE,58,6.0,10.0,95,0.02, +RA,SCT,0.64,0.0,WeatherDisplay:10.37,2013-12-28 12:20:00,
2013-12-28 02:30:00,65.5,64.3,29.87,ENE,62,6.0,10.0,96,0.01, +RA,SCT,0.65,0.0,WeatherDisplay:10.37,2013-12-28 12:30:00,
2013-12-28 02:40:00,65.8,64.6,29.86,ENE,71,6.0,13.0,96,0.01,-RA,SCT,0.66,0.0,WeatherDisplay:10.37,2013-12-28 12:40:00,
2013-12-28 02:50:00,65.9,64.7,29.86,ENE,63,2.0,12.0,96,0.03,-RA,SCT,0.69,0.0,WeatherDisplay:10.37,2013-12-28 12:50:00,
2013-12-28 03:01:00,65.7,64.6,29.85,ENE,74,3.0,12.0,96,0.01,-RA,SCT,0.70,0.0,WeatherDisplay:10.37,2013-12-28 13:01:00,
2013-12-28 03:10:00,65.8,64.6,29.85,ENE,67,3.0,8.0,96,0.01,RA,SCT,0.71,0.0,WeatherDisplay:10.37,2013-12-28 13:10:00,
2013-12-28 03:20:00,66.0,64.8,29.85,ENE,65,2.0,10.0,96,0.00,OVC,SCT,0.71,0.0,WeatherDisplay:10.37,2013-12-28 13:20:00,
2013-12-28 03:30:00,66.2,65.0,29.85,ENE,58,3.0,12.0,96,0.13,RA,SCT,0.85,0.0,WeatherDisplay:10.37,2013-12-28 13:30:00,
2013-12-28 03:40:00,66.3,65.1,29.85,ENE,63,8.0,14.0,96,0.06,RA,SCT,0.90,0.0,WeatherDisplay:10.37,2013-12-28 13:40:00,
2013-12-28 03:50:00,66.2,64.7,29.85,ENE,62,7.0,21.0,95,0.01,RA,SCT,0.91,0.0,WeatherDisplay:10.37,2013-12-28 13:50:00,
2013-12-28 04:01:00,66.3,65.1,29.85,ENE,62,8.0,16.0,96,0.01,RA,SCT,0.92,0.0,WeatherDisplay:10.37,2013-12-28 14:01:00,
2013-12-28 04:10:00,66.5,65.3,29.84,ENE,61,6.0,14.0,96,0.00, +RA,SCT,0.92,0.0,WeatherDisplay:10.37,2013-12-28 14:10:00,
2013-12-28 04:20:00,66.6,65.4,29.84,ENE,63,5.0,15.0,96,0.05, +RA,SCT,0.97,0.0,WeatherDisplay:10.37,2013-12-28 14:20:00,
2013-12-28 04:31:00,66.4,65.3,29.84,ENE,62,7.0,20.0,96,0.03, +RA,SCT,1.00,0.0,WeatherDisplay:10.37,2013-12-28 14:31:00,
2013-12-28 04:40:00,66.5,65.3,29.85,ENE,67,6.0,17.0,96,0.01, +RA,SCT,1.01,0.0,WeatherDisplay:10.37,2013-12-28 14:40:00,
2013-12-28 04:50:00,66.5,65.3,29.85,ENE,64,6.0,17.0,96,0.00, +RA,SCT,1.01,0.0,WeatherDisplay:10.37,2013-12-28 14:50:00,
2013-12-28 05:01:00,66.4,65.2,29.85,ENE,62,6.0,13.0,96,0.03, +RA,SCT,1.04,0.0,WeatherDisplay:10.37,2013-12-28 15:01:00,
2013-12-28 05:10:00,66.1,64.6,29.85,ENE,69,10.0,21.0,95,0.00,OVC,SCT,1.04,0.0,WeatherDisplay:10.37,2013-12-28 15:10:00,
2013-12-28 05:20:00,66.1,64.6,29.84,ENE,66,9.0,16.0,95,0.00,OVC,SCT,1.04,0.0,WeatherDisplay:10.37,2013-12-28 15:20:00,
2013-12-28 05:30:00,66.0,64.5,29.84,ENE,62,6.0,16.0,95,0.00,OVC,SCT,1.04,0.0,WeatherDisplay:10.37,2013-12-28 15:30:00,
2013-12-28 05:40:00,65.8,64.4,29.85,ENE,71,7.0,12.0,95,0.00,SCT,SCT,1.04,0.0,WeatherDisplay:10.37,2013-12-28 15:40:00,
2013-12-28 05:50:00,65.7,64.2,29.85,ENE,70,7.0,15.0,95,0.00,SCT,SCT,1.04,0.0,WeatherDisplay:10.37,2013-12-28 15:50:00,
2013-12-28 06:01:00,65.7,64.2,29.85,ENE,70,8.0,12.0,95,0.01,RA,SCT,1.05,0.0,WeatherDisplay:10.37,2013-12-28 16:01:00,
2013-12-28 06:10:00,65.6,64.1,29.84,ENE,78,8.0,12.0,95,0.00,CLR,SCT,1.05,0.0,WeatherDisplay:10.37,2013-12-28 16:10:00,
2013-12-28 06:20:00,65.6,63.8,29.84,East,84,6.0,15.0,94,0.00,CLR,SCT,1.05,0.0,WeatherDisplay:10.37,2013-12-28 16:20:00,
2013-12-28 06:31:00,65.8,63.7,29.84,ENE,70,9.0,20.0,93,0.00,CLR,SCT,1.05,0.0,WeatherDisplay:10.37,2013-12-28 16:31:00,
2013-12-28 06:40:00,65.7,63.6,29.85,ENE,60,8.0,17.0,93,0.00,CLR,SCT,1.05,0.0,WeatherDisplay:10.37,2013-12-28 16:40:00,
2013-12-28 06:50:00,65.8,63.7,29.85,ENE,63,9.0,18.0,93,0.00,CLR,SCT,1.05,0.0,WeatherDisplay:10.37,2013-12-28 16:50:00,
2013-12-28 07:01:00,65.8,63.7,29.85,ENE,69,9.0,18.0,93,0.00,CLR,SCT,1.05,0.0,WeatherDisplay:10.37,2013-12-28 17:01:00,
2013-12-28 07:10:00,65.8,63.4,29.85,ENE,62,6.0,16.0,92,0.00,FEW,SCT,1.05,0.2,WeatherDisplay:10.37,2013-12-28 17:10:00,
2013-12-28 07:20:00,65.8,63.4,29.86,ENE,60,6.0,13.0,92,0.00,FEW,SCT,1.05,0.8,WeatherDisplay:10.37,2013-12-28 17:20:00,
2013-12-28 07:31:00,65.8,63.4,29.86,ENE,60,7.0,12.0,92,0.00,FEW,SCT,1.05,1.8,WeatherDisplay:10.37,2013-12-28 17:31:00,
2013-12-28 07:40:00,65.8,63.4,29.86,ENE,60,5.0,18.0,92,0.00,FEW,SCT,1.05,3.2,WeatherDisplay:10.37,2013-12-28 17:40:00,
2013-12-28 07:50:00,66.0,63.6,29.86,ENE,64,9.0,16.0,92,0.00,FEW,SCT,1.05,5.2,WeatherDisplay:10.37,2013-12-28 17:50:00,
2013-12-28 08:01:00,66.7,64.3,29.87,NE,55,7.0,16.0,92,0.00,FEW,SCT,1.05,9.5,WeatherDisplay:10.37,2013-12-28 18:01:00,
2013-12-28 08:10:00,67.4,64.7,29.87,ENE,61,7.0,16.0,91,0.00,SCT,SCT,1.05,72.5,WeatherDisplay:10.37,2013-12-28 18:10:00,
2013-12-28 08:20:00,68.1,65.1,29.87,ENE,60,8.0,15.0,90,0.00,SCT,SCT,1.05,100.3,WeatherDisplay:10.37,2013-12-28 18:20:00,
2013-12-28 08:31:00,68.6,65.5,29.87,ENE,62,6.0,13.0,90,0.00,SCT,SCT,1.05,123.8,WeatherDisplay:10.37,2013-12-28 18:31:00,
2013-12-28 08:40:00,69.1,65.7,29.88,ENE,64,8.0,17.0,89,0.00,SCT,SCT,1.05,147.7,WeatherDisplay:10.37,2013-12-28 18:40:00,
2013-12-28 08:50:00,69.3,65.9,29.88,ENE,64,9.0,17.0,89,0.00,SCT,SCT,1.05,172.6,WeatherDisplay:10.37,2013-12-28 18:50:00,
2013-12-28 09:01:00,69.6,65.9,29.89,ENE,62,9.0,15.0,88,0.00,SCT,SCT,1.05,199.8,WeatherDisplay:10.37,2013-12-28 19:01:00,
2013-12-28 09:10:00,70.1,66.4,29.89,NE,51,10.0,17.0,88,0.00,SCT,SCT,1.05,187.0,WeatherDisplay:10.37,2013-12-28 19:10:00,
2013-12-28 09:20:00,70.4,66.7,29.90,ENE,66,8.0,16.0,88,0.00,SCT,SCT,1.05,109.5,WeatherDisplay:10.37,2013-12-28 19:20:00,
2013-12-28 09:31:00,70.0,66.6,29.90,ENE,71,7.0,18.0,89,0.00,SCT,SCT,1.05,279.3,WeatherDisplay:10.37,2013-12-28 19:31:00,
2013-12-28 09:40:00,70.7,67.3,29.90,ENE,64,6.0,15.0,89,0.00,SCT,SCT,1.05,178.6,WeatherDisplay:10.37,2013-12-28 19:40:00,
2013-12-28 09:50:00,71.1,67.7,29.90,ENE,59,9.0,16.0,89,0.00,SCT,SCT,1.05,423.9,WeatherDisplay:10.37,2013-12-28 19:50:00,
2013-12-28 10:01:00,71.3,67.6,29.90,NE,53,8.0,16.0,88,0.00,SCT,SCT,1.05,384.6,WeatherDisplay:10.37,2013-12-28 20:01:00,
2013-12-28 10:10:00,71.8,68.0,29.90,NE,48,8.0,14.0,88,0.00,SCT,SCT,1.05,423.9,WeatherDisplay:10.37,2013-12-28 20:10:00,
2013-12-28 10:20:00,72.6,68.1,29.89,NE,48,9.0,14.0,86,0.00,SCT,SCT,1.05,475.2,WeatherDisplay:10.37,2013-12-28 20:20:00,
2013-12-28 10:31:00,72.9,68.1,29.90,NE,55,8.0,15.0,85,0.00,SCT,SCT,1.05,516.2,WeatherDisplay:10.37,2013-12-28 20:31:00,
2013-12-28 10:40:00,72.7,68.6,29.90,ENE,61,6.0,20.0,87,0.00,SCT,SCT,1.05,466.6,WeatherDisplay:10.37,2013-12-28 20:40:00,
2013-12-28 10:50:00,71.9,67.8,29.90,ENE,66,7.0,14.0,87,0.00,SCT,SCT,1.05,342.9,WeatherDisplay:10.37,2013-12-28 20:50:00,
2013-12-28 11:01:00,71.4,67.3,29.90,ENE,62,5.0,15.0,87,0.00,SCT,SCT,1.05,617.2,WeatherDisplay:10.37,2013-12-28 21:01:00,
2013-12-28 11:10:00,72.5,68.4,29.89,ENE,63,9.0,17.0,87,0.00,SCT,SCT,1.05,699.1,WeatherDisplay:10.37,2013-12-28 21:10:00,
2013-12-28 11:20:00,73.1,69.3,29.89,ENE,58,10.0,15.0,88,0.00,SCT,SCT,1.05,691.9,WeatherDisplay:10.37,2013-12-28 21:20:00,
2013-12-28 11:31:00,73.3,68.9,29.88,NE,42,8.0,14.0,86,0.00,SCT,SCT,1.05,730.6,WeatherDisplay:10.37,2013-12-28 21:31:00,
2013-12-28 11:40:00,74.0,69.2,29.88,ENE,66,9.0,16.0,85,0.00,SCT,SCT,1.05,782.9,WeatherDisplay:10.37,2013-12-28 21:40:00,
2013-12-28 11:50:00,73.7,69.2,29.87,ENE,67,6.0,16.0,86,0.00,SCT,SCT,1.05,856.1,WeatherDisplay:10.37,2013-12-28 21:50:00,
2013-12-28 12:01:00,73.5,69.4,29.87,ENE,59,10.0,14.0,87,0.00,SCT,SCT,1.05,957.4,WeatherDisplay:10.37,2013-12-28 22:01:00,
2013-12-28 12:10:00,72.9,68.5,29.86,ENE,62,7.0,17.0,86,0.00,SCT,SCT,1.05,904.2,WeatherDisplay:10.37,2013-12-28 22:10:00,
2013-12-28 12:20:00,73.3,67.8,29.85,ENE,60,9.0,18.0,83,0.00,SCT,SCT,1.05,897.1,WeatherDisplay:10.37,2013-12-28 22:20:00,
2013-12-28 12:31:00,74.2,68.3,29.85,ENE,58,7.0,15.0,82,0.00,SCT,SCT,1.05,572.7,WeatherDisplay:10.37,2013-12-28 22:31:00,
2013-12-28 12:40:00,73.5,67.6,29.85,ENE,70,8.0,15.0,82,0.00,SCT,SCT,1.05,310.6,WeatherDisplay:10.37,2013-12-28 22:40:00,
2013-12-28 12:50:00,71.9,67.5,29.84,ENE,73,6.0,15.0,86,0.00,SCT,SCT,1.05,300.6,WeatherDisplay:10.37,2013-12-28 22:50:00,
2013-12-28 13:01:00,70.8,66.7,29.83,ENE,62,7.0,15.0,87,0.00,SCT,SCT,1.05,368.5,WeatherDisplay:10.37,2013-12-28 23:01:00,
2013-12-28 13:10:00,71.1,67.7,29.83,ENE,64,5.0,13.0,89,0.00,SCT,SCT,1.05,524.3,WeatherDisplay:10.37,2013-12-28 23:10:00,
2013-12-28 13:20:00,72.5,68.1,29.82,ENE,61,8.0,12.0,86,0.00,SCT,SCT,1.05,1110.5,WeatherDisplay:10.37,2013-12-28 23:20:00,
2013-12-28 13:31:00,74.3,68.1,29.82,ENE,57,9.0,16.0,81,0.00,SCT,SCT,1.05,1081.9,WeatherDisplay:10.37,2013-12-28 23:31:00,
2013-12-28 13:40:00,74.3,67.7,29.82,ENE,58,7.0,15.0,80,0.00,SCT,SCT,1.05,226.9,WeatherDisplay:10.37,2013-12-28 23:40:00,
2013-12-28 13:50:00,73.4,67.3,29.81,ENE,61,9.0,16.0,81,0.00,SCT,SCT,1.05,267.5,WeatherDisplay:10.37,2013-12-28 23:50:00,
2013-12-28 14:01:00,73.7,67.5,29.81,ENE,67,6.0,14.0,81,0.00,SCT,SCT,1.05,768.9,WeatherDisplay:10.37,2013-12-29 00:01:00,
2013-12-28 14:10:00,75.3,69.4,29.80,ENE,63,5.0,14.0,82,0.00,SCT,SCT,1.05,344.7,WeatherDisplay:10.37,2013-12-29 00:10:00,
2013-12-28 14:20:00,75.7,68.7,29.80,ENE,59,6.0,14.0,79,0.00,SCT,SCT,1.05,631.8,WeatherDisplay:10.37,2013-12-29 00:20:00,
2013-12-28 14:31:00,75.4,68.4,29.80,ENE,67,8.0,16.0,79,0.00,SCT,SCT,1.05,630.0,WeatherDisplay:10.37,2013-12-29 00:31:00,
2013-12-28 14:40:00,75.7,68.7,29.79,ENE,60,7.0,12.0,79,0.00,SCT,SCT,1.05,582.6,WeatherDisplay:10.37,2013-12-29 00:40:00,
2013-12-28 14:50:00,76.4,69.0,29.79,NE,54,7.0,13.0,78,0.00,SCT,SCT,1.05,626.2,WeatherDisplay:10.37,2013-12-29 00:50:00,
2013-12-28 15:01:00,75.9,68.1,29.79,NE,47,5.0,13.0,77,0.00,SCT,SCT,1.05,118.1,WeatherDisplay:10.37,2013-12-29 01:01:00,
2013-12-28 15:10:00,74.3,67.8,29.80,ENE,63,6.0,15.0,80,0.00,SCT,SCT,1.05,140.2,WeatherDisplay:10.37,2013-12-29 01:10:00,
2013-12-28 15:20:00,73.5,67.3,29.79,NE,54,6.0,15.0,81,0.00,SCT,SCT,1.05,84.4,WeatherDisplay:10.37,2013-12-29 01:20:00,
2013-12-28 15:31:00,72.5,67.1,29.80,ENE,67,5.0,12.0,83,0.00,SCT,SCT,1.05,53.7,WeatherDisplay:10.37,2013-12-29 01:31:00,
2013-12-28 15:40:00,71.8,66.7,29.79,ENE,63,3.0,12.0,84,0.00,SCT,SCT,1.05,32.7,WeatherDisplay:10.37,2013-12-29 01:40:00,
2013-12-28 15:50:00,71.1,66.4,29.79,ENE,60,8.0,12.0,85,0.00,SCT,SCT,1.05,54.0,WeatherDisplay:10.37,2013-12-29 01:50:00,
2013-12-28 16:01:00,71.4,67.0,29.79,ENE,66,6.0,10.0,86,0.00,SCT,SCT,1.05,232.9,WeatherDisplay:10.37,2013-12-29 02:01:00,
2013-12-28 16:10:00,73.0,67.5,29.79,ENE,67,5.0,13.0,83,0.00,SCT,SCT,1.05,193.1,WeatherDisplay:10.37,2013-12-29 02:10:00,
2013-12-28 16:20:00,73.9,67.7,29.79,ENE,66,6.0,12.0,81,0.00,SCT,SCT,1.05,160.6,WeatherDisplay:10.37,2013-12-29 02:20:00,
2013-12-28 16:31:00,74.0,67.5,29.79,ENE,78,8.0,13.0,80,0.00,SCT,SCT,1.05,128.3,WeatherDisplay:10.37,2013-12-29 02:31:00,
2013-12-28 16:40:00,74.0,67.7,29.78,East,96,1.0,12.0,81,0.00,SCT,SCT,1.05,101.5,WeatherDisplay:10.37,2013-12-29 02:40:00,
2013-12-28 16:50:00,74.4,67.5,29.77,East,98,2.0,8.0,79,0.00,SCT,SCT,1.05,77.8,WeatherDisplay:10.37,2013-12-29 02:50:00,
2013-12-28 17:01:00,74.2,67.6,29.77,East,89,0.0,6.0,80,0.00,SCT,SCT,1.05,56.7,WeatherDisplay:10.37,2013-12-29 03:01:00,
2013-12-28 17:10:00,74.2,67.6,29.78,East,89,0.0,4.0,80,0.00,FEW,SCT,1.05,38.6,WeatherDisplay:10.37,2013-12-29 03:10:00,
2013-12-28 17:20:00,73.8,67.6,29.78,East,89,0.0,1.0,81,0.00,FEW,SCT,1.05,23.4,WeatherDisplay:10.37,2013-12-29 03:20:00,
2013-12-28 17:31:00,73.3,67.8,29.79,WSW,238,1.0,7.0,83,0.00,FEW,SCT,1.05,11.4,WeatherDisplay:10.37,2013-12-29 03:31:00,
2013-12-28 17:40:00,72.4,67.6,29.80,SW,216,2.0,6.0,85,0.00,FEW,SCT,1.05,3.1,WeatherDisplay:10.37,2013-12-29 03:40:00,
2013-12-28 17:50:00,71.2,67.4,29.80,SSW,203,3.0,7.0,88,0.00,FEW,SCT,1.05,0.0,WeatherDisplay:10.37,2013-12-29 03:50:00,
2013-12-28 18:01:00,70.2,66.8,29.80,SSW,208,1.0,7.0,89,0.00,FEW,SCT,1.05,0.0,WeatherDisplay:10.37,2013-12-29 04:01:00,
2013-12-28 18:10:00,69.5,66.5,29.81,SSW,206,1.0,5.0,90,0.00,FEW,SCT,1.05,0.0,WeatherDisplay:10.37,2013-12-29 04:10:00,
2013-12-28 18:20:00,69.1,66.3,29.81,SSW,196,3.0,7.0,91,0.00,FEW,SCT,1.05,0.0,WeatherDisplay:10.37,2013-12-29 04:20:00,
2013-12-28 18:31:00,68.7,66.2,29.81,SSW,192,2.0,7.0,92,0.00,FEW,SCT,1.05,0.0,WeatherDisplay:10.37,2013-12-29 04:31:00,
2013-12-28 18:40:00,68.4,66.0,29.82,SSW,192,1.0,5.0,92,0.00,FEW,SCT,1.05,0.0,WeatherDisplay:10.37,2013-12-29 04:40:00,
2013-12-28 18:50:00,68.4,66.3,29.83,SSW,192,0.0,2.0,93,0.00,FEW,SCT,1.05,0.0,WeatherDisplay:10.37,2013-12-29 04:50:00,
2013-12-28 19:01:00,68.5,66.4,29.83,NW,312,2.0,6.0,93,0.00,FEW,SCT,1.05,0.0,WeatherDisplay:10.37,2013-12-29 05:01:00,
2013-12-28 19:10:00,68.4,66.3,29.84,NW,325,0.0,3.0,93,0.00,FEW,SCT,1.05,0.0,WeatherDisplay:10.37,2013-12-29 05:10:00,
2013-12-28 19:20:00,68.4,66.3,29.84,NW,317,0.0,4.0,93,0.00,FEW,SCT,1.05,0.0,WeatherDisplay:10.37,2013-12-29 05:20:00,
2013-12-28 19:31:00,68.3,66.2,29.85,NW,310,0.0,0.0,93,0.00,FEW,SCT,1.05,0.0,WeatherDisplay:10.37,2013-12-29 05:31:00,
2013-12-28 19:40:00,68.4,66.6,29.85,NW,310,0.0,0.0,94,0.00,FEW,SCT,1.05,0.0,WeatherDisplay:10.37,2013-12-29 05:40:00,
2013-12-28 19:50:00,68.4,66.6,29.85,NW,310,0.0,0.0,94,0.00,FEW,SCT,1.05,0.0,WeatherDisplay:10.37,2013-12-29 05:50:00,
2013-12-28 20:01:00,68.4,66.6,29.86,NW,310,0.0,4.0,94,0.00,FEW,SCT,1.05,0.0,WeatherDisplay:10.37,2013-12-29 06:01:00,
2013-12-28 20:10:00,68.2,66.1,29.86,NW,310,1.0,4.0,93,0.00,FEW,SCT,1.05,0.0,WeatherDisplay:10.37,2013-12-29 06:10:00,
2013-12-28 20:20:00,67.9,65.8,29.87,NW,314,0.0,4.0,93,0.00,SCT,SCT,1.05,0.0,WeatherDisplay:10.37,2013-12-29 06:20:00,
2013-12-28 20:31:00,67.7,65.6,29.87,NW,315,0.0,3.0,93,0.00,SCT,SCT,1.05,0.0,WeatherDisplay:10.37,2013-12-29 06:31:00,
2013-12-28 20:40:00,67.8,65.7,29.87,NW,315,0.0,0.0,93,0.00,SCT,SCT,1.05,0.0,WeatherDisplay:10.37,2013-12-29 06:40:00,
2013-12-28 20:50:00,67.8,65.7,29.87,NW,315,0.0,2.0,93,0.00,SCT,SCT,1.05,0.0,WeatherDisplay:10.37,2013-12-29 06:50:00,
2013-12-28 21:01:00,67.9,65.8,29.88,NW,315,0.0,0.0,93,0.00,SCT,SCT,1.05,0.0,WeatherDisplay:10.37,2013-12-29 07:01:00,
2013-12-28 21:10:00,67.9,66.1,29.88,NW,315,0.0,0.0,94,0.00,-RA,SCT,1.05,0.0,WeatherDisplay:10.37,2013-12-29 07:10:00,
2013-12-28 21:20:00,68.0,66.2,29.88,NW,315,0.0,0.0,94,0.01,RA,SCT,1.06,0.0,WeatherDisplay:10.37,2013-12-29 07:20:00,
2013-12-28 21:31:00,68.0,66.2,29.89,NW,315,0.0,0.0,94,0.06,RA,SCT,1.12,0.0,WeatherDisplay:10.37,2013-12-29 07:31:00,
2013-12-28 21:40:00,67.9,66.1,29.89,NNW,330,2.0,4.0,94,0.06,RA,SCT,1.18,0.0,WeatherDisplay:10.37,2013-12-29 07:40:00,
2013-12-28 21:50:00,67.8,66.0,29.89,NNW,343,0.0,1.0,94,0.00,OVC,SCT,1.18,0.0,WeatherDisplay:10.37,2013-12-29 07:50:00,
2013-12-28 22:01:00,67.7,66.2,29.88,NNW,343,0.0,0.0,95,0.01,RA,SCT,1.19,0.0,WeatherDisplay:10.37,2013-12-29 08:01:00,
2013-12-28 22:10:00,67.7,66.2,29.88,NNW,343,0.0,0.0,95,0.01,RA,SCT,1.20,0.0,WeatherDisplay:10.37,2013-12-29 08:10:00,
2013-12-28 22:20:00,67.7,66.2,29.88,NNW,343,0.0,3.0,95,0.01,RA,SCT,1.21,0.0,WeatherDisplay:10.37,2013-12-29 08:20:00,
2013-12-28 22:31:00,67.6,66.1,29.88,NNW,344,0.0,5.0,95,0.02,RA,SCT,1.23,0.0,WeatherDisplay:10.37,2013-12-29 08:31:00,
2013-12-28 22:40:00,67.5,66.0,29.88,NNW,345,0.0,3.0,95,0.00,-RA,SCT,1.23,0.0,WeatherDisplay:10.37,2013-12-29 08:40:00,
2013-12-28 22:50:00,67.4,65.9,29.87,NNW,345,0.0,0.0,95,0.00,-RA,SCT,1.23,0.0,WeatherDisplay:10.37,2013-12-29 08:50:00,
2013-12-28 23:01:00,67.3,65.9,29.87,NNW,345,1.0,3.0,95,0.00,-RA,SCT,1.23,0.0,WeatherDisplay:10.37,2013-12-29 09:01:00,
2013-12-28 23:10:00,67.2,65.8,29.87,NNW,346,0.0,3.0,95,0.00,BKN,SCT,1.23,0.0,WeatherDisplay:10.37,2013-12-29 09:10:00,
2013-12-28 23:20:00,67.2,66.0,29.87,NNW,346,0.0,0.0,96,0.00,BKN,SCT,1.23,0.0,WeatherDisplay:10.37,2013-12-29 09:20:00,
2013-12-28 23:31:00,67.2,66.0,29.87,NNW,346,0.0,3.0,96,0.00,BKN,SCT,1.23,0.0,WeatherDisplay:10.37,2013-12-29 09:31:00,
2013-12-28 23:40:00,67.0,65.8,29.86,NNW,346,0.0,3.0,96,0.00,BKN,SCT,1.23,0.0,WeatherDisplay:10.37,2013-12-29 09:40:00,
2013-12-28 23:50:00,67.0,65.8,29.87,NNW,346,0.0,0.0,96,0.00,OVC,SCT,1.23,0.0,WeatherDisplay:10.37,2013-12-29 09:50:00,